createdAt,value
2018-07-25T00:02:20.916Z,99.90
2018-07-25T00:07:16.928Z,99.90
2018-07-25T00:09:45.074Z,99.90
2018-07-25T00:12:13.130Z,99.90
2018-07-25T00:14:41.224Z,99.90
2018-07-25T00:17:09.485Z,99.90
2018-07-25T00:19:37.682Z,99.90
2018-07-25T00:22:05.915Z,99.90
2018-07-25T00:24:34.211Z,99.90
2018-07-25T00:27:02.404Z,99.90
2018-07-25T00:29:30.477Z,99.90
2018-07-25T00:31:58.545Z,99.90
2018-07-25T00:34:26.754Z,99.90
2018-07-25T00:36:54.783Z,99.90
2018-07-25T00:39:22.849Z,99.90
2018-07-25T00:41:50.943Z,99.90
2018-07-25T00:44:19.092Z,99.90
2018-07-25T00:46:47.288Z,99.90
2018-07-25T00:49:15.274Z,99.90
2018-07-25T00:51:43.305Z,99.90
2018-07-25T00:54:11.511Z,99.90
2018-07-25T00:56:39.587Z,99.90
2018-07-25T00:59:07.740Z,99.90
2018-07-25T01:01:35.959Z,99.90
2018-07-25T01:04:04.248Z,99.90
2018-07-25T01:06:32.383Z,99.90
2018-07-25T01:09:00.445Z,99.90
2018-07-25T01:11:28.529Z,99.90
2018-07-25T01:13:56.620Z,99.90
2018-07-25T01:16:24.678Z,99.90
2018-07-25T01:18:52.729Z,99.90
2018-07-25T01:21:20.837Z,99.90
2018-07-25T01:23:49.088Z,99.90
2018-07-25T01:26:17.161Z,99.90
2018-07-25T01:28:45.343Z,99.90
2018-07-25T01:31:13.525Z,99.90
2018-07-25T01:33:41.564Z,99.90
2018-07-25T01:38:37.513Z,99.90
2018-07-25T01:41:05.646Z,99.90
2018-07-25T01:43:33.687Z,99.90
2018-07-25T01:46:01.730Z,99.90
2018-07-25T01:48:29.854Z,99.90
2018-07-25T01:50:58.233Z,99.90
2018-07-25T01:53:26.293Z,99.90
2018-07-25T01:55:54.356Z,99.90
2018-07-25T01:58:22.404Z,99.90
2018-07-25T02:01:02.262Z,99.90
2018-07-25T02:03:41.015Z,99.90
2018-07-25T02:06:11.848Z,99.90
2018-07-25T02:08:44.999Z,99.90
2018-07-25T02:13:48.409Z,99.90
2018-07-25T02:18:49.116Z,99.90
2018-07-25T02:21:17.198Z,99.90
2018-07-25T02:23:45.248Z,99.90
2018-07-25T02:26:13.313Z,99.90
2018-07-25T02:28:41.510Z,99.90
2018-07-25T02:31:09.731Z,99.90
2018-07-25T02:36:11.344Z,99.90
2018-07-25T02:38:39.436Z,99.90
2018-07-25T02:41:07.486Z,99.90
2018-07-25T02:43:35.595Z,99.90
2018-07-25T02:46:03.748Z,99.90
2018-07-25T02:48:31.926Z,99.90
2018-07-25T02:51:00.120Z,99.90
2018-07-25T02:53:28.249Z,99.90
2018-07-25T02:55:56.583Z,99.90
2018-07-25T02:58:24.626Z,99.90
2018-07-25T03:00:52.885Z,99.90
2018-07-25T03:03:20.913Z,99.90
2018-07-25T03:05:49.356Z,99.90
2018-07-25T03:08:17.752Z,99.90
2018-07-25T03:10:52.046Z,99.90
2018-07-25T03:13:20.744Z,99.90
2018-07-25T03:16:09.195Z,99.90
2018-07-25T03:18:37.680Z,99.90
2018-07-25T03:21:05.804Z,99.90
2018-07-25T03:23:35.088Z,99.90
2018-07-25T03:26:03.541Z,99.90
2018-07-25T03:28:31.749Z,99.90
2018-07-25T03:31:00.690Z,99.90
2018-07-25T03:33:28.797Z,99.90
2018-07-25T03:35:57.997Z,99.90
2018-07-25T03:38:26.711Z,99.90
2018-07-25T03:43:23.414Z,99.90
2018-07-25T03:45:52.017Z,99.90
2018-07-25T03:48:35.647Z,99.90
2018-07-25T03:51:04.208Z,99.90
2018-07-25T03:53:32.278Z,99.90
2018-07-25T03:56:00.671Z,99.90
2018-07-25T03:58:29.595Z,99.90
2018-07-25T04:00:57.750Z,99.90
2018-07-25T04:03:25.804Z,99.90
2018-07-25T04:05:53.912Z,99.90
2018-07-25T04:08:22.065Z,99.90
2018-07-25T04:10:50.113Z,99.90
2018-07-25T04:13:19.180Z,99.90
2018-07-25T04:15:47.411Z,99.90
2018-07-25T04:18:15.465Z,99.90
2018-07-25T04:20:43.569Z,99.90
2018-07-25T04:23:11.629Z,99.90
2018-07-25T04:25:39.725Z,99.90
2018-07-25T04:28:07.753Z,99.90
2018-07-25T04:30:35.851Z,99.90
2018-07-25T04:33:04.213Z,99.90
2018-07-25T04:35:32.328Z,99.90
2018-07-25T04:38:00.486Z,99.90
2018-07-25T04:40:28.700Z,99.90
2018-07-25T04:42:57.057Z,99.90
2018-07-25T04:45:25.147Z,99.90
2018-07-25T04:47:53.190Z,99.90
2018-07-25T04:50:21.327Z,99.90
2018-07-25T04:55:17.378Z,99.90
2018-07-25T04:57:45.555Z,99.90
2018-07-25T05:00:13.768Z,99.90
2018-07-25T05:02:41.912Z,99.90
2018-07-25T05:05:10.002Z,99.90
2018-07-25T05:07:38.056Z,99.90
2018-07-25T05:10:06.241Z,99.90
2018-07-25T05:12:34.485Z,99.90
2018-07-25T05:15:02.581Z,99.90
2018-07-25T05:17:30.664Z,99.90
2018-07-25T05:19:58.961Z,99.90
2018-07-25T05:22:27.021Z,99.90
2018-07-25T05:24:55.185Z,99.90
2018-07-25T05:27:23.268Z,99.90
2018-07-25T05:29:51.324Z,99.90
2018-07-25T05:32:19.640Z,99.90
2018-07-25T05:34:47.885Z,99.90
2018-07-25T05:37:15.967Z,99.90
2018-07-25T05:39:44.166Z,99.90
2018-07-25T05:42:12.415Z,99.90
2018-07-25T05:44:40.517Z,99.90
2018-07-25T05:47:08.676Z,99.90
2018-07-25T05:49:36.863Z,99.90
2018-07-25T05:52:04.917Z,99.90
2018-07-25T05:54:33.078Z,99.90
2018-07-25T05:57:01.272Z,99.90
2018-07-25T05:59:29.463Z,99.90
2018-07-25T06:01:57.622Z,99.90
2018-07-25T06:04:25.986Z,99.90
2018-07-25T06:06:54.068Z,99.90
2018-07-25T06:09:22.148Z,99.90
2018-07-25T06:11:50.305Z,99.90
2018-07-25T06:14:18.473Z,99.90
2018-07-25T06:16:46.608Z,99.90
2018-07-25T06:19:14.649Z,99.90
2018-07-25T06:21:42.828Z,99.90
2018-07-25T06:24:10.888Z,99.90
2018-07-25T06:26:38.956Z,99.90
2018-07-25T06:29:07.141Z,99.90
2018-07-25T06:31:35.221Z,99.90
2018-07-25T06:34:03.507Z,99.90
2018-07-25T06:36:31.554Z,99.90
2018-07-25T06:38:59.641Z,99.90
2018-07-25T06:41:27.682Z,99.90
2018-07-25T06:43:56.008Z,99.90
2018-07-25T06:46:24.127Z,99.90
2018-07-25T06:48:52.358Z,99.90
2018-07-25T06:51:20.395Z,99.90
2018-07-25T06:53:48.595Z,99.90
2018-07-25T06:56:16.847Z,99.90
2018-07-25T06:58:44.943Z,99.90
2018-07-25T07:01:13.082Z,99.90
2018-07-25T07:06:08.987Z,99.90
2018-07-25T07:08:36.996Z,99.90
2018-07-25T07:13:32.988Z,99.90
2018-07-25T07:16:01.122Z,99.90
2018-07-25T07:20:57.186Z,99.90
2018-07-25T07:23:25.501Z,99.90
2018-07-25T07:25:53.678Z,99.90
2018-07-25T07:28:21.944Z,99.90
2018-07-25T07:30:49.999Z,99.90
2018-07-25T07:33:18.081Z,99.90
2018-07-25T07:35:46.145Z,99.90
2018-07-25T07:38:14.206Z,99.90
2018-07-25T07:40:42.303Z,99.90
2018-07-25T07:43:10.365Z,99.90
2018-07-25T07:45:38.459Z,99.90
2018-07-25T07:48:06.616Z,99.90
2018-07-25T07:50:34.779Z,99.90
2018-07-25T07:53:02.879Z,99.90
2018-07-25T07:55:30.929Z,99.90
2018-07-25T07:57:59.084Z,99.90
2018-07-25T08:00:27.196Z,99.90
2018-07-25T08:02:55.360Z,99.90
2018-07-25T08:05:24.386Z,99.90
2018-07-25T08:07:52.434Z,99.90
2018-07-25T08:10:20.671Z,99.90
2018-07-25T08:15:16.559Z,99.90
2018-07-25T08:17:44.675Z,99.90
2018-07-25T08:20:12.669Z,99.90
2018-07-25T08:22:40.760Z,99.90
2018-07-25T08:25:08.842Z,99.90
2018-07-25T08:27:36.993Z,99.90
2018-07-25T08:30:05.549Z,99.90
2018-07-25T08:32:33.579Z,99.90
2018-07-25T08:35:01.626Z,99.90
2018-07-25T08:37:29.929Z,99.90
2018-07-25T08:39:57.963Z,99.90
2018-07-25T08:44:54.047Z,99.90
2018-07-25T08:47:22.384Z,99.90
2018-07-25T08:52:18.356Z,99.90
2018-07-25T08:54:46.419Z,99.90
2018-07-25T08:57:14.533Z,99.90
2018-07-25T08:59:42.660Z,99.90
2018-07-25T09:02:10.889Z,99.90
2018-07-25T09:04:39.013Z,99.90
2018-07-25T09:07:07.116Z,99.90
2018-07-25T09:09:35.293Z,99.90
2018-07-25T09:12:03.563Z,99.90
2018-07-25T09:14:31.727Z,99.90
2018-07-25T09:16:59.815Z,99.90
2018-07-25T09:19:28.044Z,99.90
2018-07-25T09:24:24.022Z,99.90
2018-07-25T09:26:52.098Z,99.90
2018-07-25T09:29:20.285Z,99.90
2018-07-25T09:31:48.564Z,99.90
2018-07-25T09:34:16.718Z,99.90
2018-07-25T09:36:44.806Z,99.90
2018-07-25T09:39:12.948Z,99.90
2018-07-25T09:41:41.054Z,99.90
2018-07-25T09:44:09.241Z,99.90
2018-07-25T09:46:37.297Z,99.90
2018-07-25T09:49:05.761Z,99.90
2018-07-25T09:51:33.848Z,99.90
2018-07-25T09:54:02.026Z,99.90
2018-07-25T09:56:30.099Z,99.90
2018-07-25T09:58:58.308Z,99.90
2018-07-25T10:01:26.728Z,99.90
2018-07-25T10:03:54.957Z,99.90
2018-07-25T10:06:22.999Z,99.90
2018-07-25T10:08:51.154Z,99.90
2018-07-25T10:11:19.345Z,99.70
2018-07-25T10:13:47.525Z,99.70
2018-07-25T10:16:15.708Z,98.30
2018-07-25T10:18:43.841Z,98.40
2018-07-25T10:21:11.840Z,97.20
2018-07-25T10:23:40.034Z,98.80
2018-07-25T10:26:08.077Z,97.40
2018-07-25T10:28:36.213Z,98.00
2018-07-25T10:31:04.342Z,96.60
2018-07-25T10:33:32.408Z,95.30
2018-07-25T10:36:00.617Z,93.90
2018-07-25T10:38:28.653Z,93.90
2018-07-25T10:40:56.765Z,96.20
2018-07-25T10:43:25.074Z,94.80
2018-07-25T10:48:21.307Z,94.20
2018-07-25T10:50:49.361Z,95.10
2018-07-25T10:53:17.537Z,95.00
2018-07-25T10:55:45.708Z,94.80
2018-07-25T10:58:13.791Z,92.80
2018-07-25T11:00:41.956Z,93.20
2018-07-25T11:03:09.996Z,93.60
2018-07-25T11:05:38.201Z,95.40
2018-07-25T11:08:06.585Z,94.20
2018-07-25T11:10:34.737Z,94.00
2018-07-25T11:13:02.988Z,93.70
2018-07-25T11:17:58.849Z,92.00
2018-07-25T11:20:26.968Z,91.40
2018-07-25T11:22:55.024Z,92.70
2018-07-25T11:25:23.060Z,91.60
2018-07-25T11:27:51.268Z,94.70
2018-07-25T11:30:19.428Z,92.10
2018-07-25T11:32:47.697Z,90.40
2018-07-25T11:35:15.793Z,91.70
2018-07-25T11:37:43.940Z,91.60
2018-07-25T11:40:12.165Z,90.10
2018-07-25T11:42:40.072Z,90.00
2018-07-25T11:47:36.135Z,92.60
2018-07-25T11:50:04.588Z,91.20
2018-07-25T11:52:32.620Z,90.50
2018-07-25T11:55:00.671Z,90.90
2018-07-25T11:57:28.860Z,90.70
2018-07-25T11:59:57.069Z,90.30
2018-07-25T12:02:25.228Z,91.10
2018-07-25T12:04:53.385Z,92.10
2018-07-25T12:07:21.686Z,92.70
2018-07-25T12:09:49.732Z,91.40
2018-07-25T12:12:17.800Z,91.40
2018-07-25T12:14:45.895Z,92.40
2018-07-25T12:17:14.153Z,91.40
2018-07-25T12:19:42.242Z,91.70
2018-07-25T12:22:10.514Z,90.00
2018-07-25T12:24:38.682Z,90.00
2018-07-25T12:27:06.783Z,90.20
2018-07-25T12:29:34.832Z,88.70
2018-07-25T12:32:03.028Z,91.00
2018-07-25T12:34:31.077Z,90.20
2018-07-25T12:36:59.366Z,91.20
2018-07-25T12:39:27.541Z,90.70
2018-07-25T12:41:55.721Z,87.20
2018-07-25T12:44:23.886Z,87.60
2018-07-25T12:46:51.972Z,86.40
2018-07-25T12:49:20.123Z,87.50
2018-07-25T12:51:48.445Z,90.90
2018-07-25T12:54:16.853Z,87.00
2018-07-25T12:56:44.961Z,83.50
2018-07-25T12:59:13.156Z,87.80
2018-07-25T13:01:41.256Z,86.40
2018-07-25T13:04:09.502Z,87.50
2018-07-25T13:06:37.803Z,85.70
2018-07-25T13:09:08.885Z,87.00
2018-07-25T13:14:05.479Z,90.10
2018-07-25T13:16:33.744Z,88.30
2018-07-25T13:19:02.105Z,89.70
2018-07-25T13:21:30.213Z,87.20
2018-07-25T13:23:58.491Z,85.60
2018-07-25T13:26:26.656Z,85.90
2018-07-25T13:28:54.933Z,85.60
2018-07-25T13:31:22.986Z,84.70
2018-07-25T13:33:51.317Z,90.00
2018-07-25T13:36:19.349Z,86.90
2018-07-25T13:38:47.545Z,87.80
2018-07-25T13:41:15.720Z,88.00
2018-07-25T13:43:43.792Z,86.00
2018-07-25T13:46:12.079Z,89.00
2018-07-25T13:48:40.116Z,86.30
2018-07-25T13:51:08.432Z,90.20
2018-07-25T13:53:36.589Z,85.30
2018-07-25T13:56:04.848Z,86.50
2018-07-25T13:58:33.058Z,84.30
2018-07-25T14:01:01.093Z,84.60
2018-07-25T14:03:29.301Z,79.30
2018-07-25T14:05:57.469Z,77.40
2018-07-25T14:08:25.619Z,77.10
2018-07-25T14:10:53.826Z,78.70
2018-07-25T14:13:21.992Z,81.40
2018-07-25T14:15:50.168Z,81.10
2018-07-25T14:18:18.273Z,76.40
2018-07-25T14:20:47.168Z,78.10
2018-07-25T14:23:15.536Z,76.70
2018-07-25T14:25:43.986Z,77.10
2018-07-25T14:28:12.495Z,75.90
2018-07-25T14:30:40.988Z,75.00
2018-07-25T14:33:09.025Z,78.50
2018-07-25T14:35:37.282Z,74.90
2018-07-25T14:38:05.903Z,76.30
2018-07-25T14:40:34.177Z,78.30
2018-07-25T14:43:02.322Z,73.80
2018-07-25T14:45:30.763Z,75.50
2018-07-25T14:47:58.904Z,75.90
2018-07-25T14:50:27.211Z,75.50
2018-07-25T14:52:55.700Z,80.00
2018-07-25T14:55:23.832Z,77.30
2018-07-25T14:57:52.127Z,76.90
2018-07-25T15:00:20.281Z,75.90
2018-07-25T15:02:48.526Z,74.20
2018-07-25T15:05:16.652Z,80.10
2018-07-25T15:07:44.728Z,73.40
2018-07-25T15:10:12.912Z,73.50
2018-07-25T15:12:43.069Z,73.30
2018-07-25T15:17:39.776Z,71.10
2018-07-25T15:20:08.928Z,70.60
2018-07-25T15:25:05.721Z,72.50
2018-07-25T15:27:34.178Z,73.30
2018-07-25T15:30:02.625Z,76.70
2018-07-25T15:32:31.063Z,79.70
2018-07-25T15:35:05.357Z,80.60
2018-07-25T15:37:33.698Z,91.70
2018-07-25T15:40:01.752Z,99.90
2018-07-25T15:42:29.956Z,99.90
2018-07-25T15:44:58.082Z,99.90
2018-07-25T15:47:26.213Z,99.90
2018-07-25T15:49:54.245Z,99.90
2018-07-25T15:52:22.673Z,99.90
2018-07-25T15:54:50.908Z,99.90
2018-07-25T15:57:19.012Z,99.90
2018-07-25T15:59:47.304Z,99.90
2018-07-25T16:02:15.456Z,99.90
2018-07-25T16:04:43.693Z,99.90
2018-07-25T16:07:12.096Z,99.90
2018-07-25T16:09:40.752Z,99.90
2018-07-25T16:12:08.957Z,99.90
2018-07-25T16:14:37.036Z,99.90
2018-07-25T16:17:06.322Z,99.90
2018-07-25T16:19:36.454Z,99.90
2018-07-25T16:22:05.742Z,99.90
2018-07-25T16:24:34.155Z,99.90
2018-07-25T16:27:02.540Z,99.90
2018-07-25T16:29:30.986Z,99.90
2018-07-25T16:31:59.318Z,99.90
2018-07-25T16:36:55.549Z,99.90
2018-07-25T16:39:23.676Z,99.90
2018-07-25T16:41:51.800Z,99.90
2018-07-25T16:44:20.157Z,99.90
2018-07-25T16:46:48.465Z,99.90
2018-07-25T16:49:16.600Z,99.90
2018-07-25T16:51:44.704Z,99.90
2018-07-25T16:54:13.148Z,99.90
2018-07-25T16:56:41.452Z,99.90
2018-07-25T16:59:09.620Z,99.90
2018-07-25T17:01:37.718Z,99.90
2018-07-25T17:06:34.139Z,99.90
2018-07-25T17:09:02.209Z,99.90
2018-07-25T17:11:30.294Z,98.20
2018-07-25T17:13:58.260Z,97.90
2018-07-25T17:16:26.332Z,96.00
2018-07-25T17:18:54.695Z,97.40
2018-07-25T17:21:22.753Z,99.90
2018-07-25T17:23:50.723Z,99.90
2018-07-25T17:26:18.701Z,99.90
2018-07-25T17:28:46.733Z,99.90
2018-07-25T17:31:14.794Z,99.90
2018-07-25T17:33:42.823Z,99.90
2018-07-25T17:36:10.924Z,99.90
2018-07-25T17:38:39.056Z,99.90
2018-07-25T17:41:07.030Z,99.90
2018-07-25T17:43:35.046Z,99.90
2018-07-25T17:46:03.293Z,99.90
2018-07-25T17:48:31.267Z,99.90
2018-07-25T17:50:59.254Z,99.90
2018-07-25T17:53:27.376Z,99.90
2018-07-25T17:58:23.484Z,99.90
2018-07-25T18:00:51.457Z,99.90
2018-07-25T18:03:19.458Z,99.90
2018-07-25T18:05:47.396Z,99.90
2018-07-25T18:08:15.391Z,99.90
2018-07-25T18:10:43.445Z,99.90
2018-07-25T18:13:16.973Z,99.90
2018-07-25T18:18:12.801Z,99.90
2018-07-25T18:20:40.791Z,99.90
2018-07-25T18:23:08.807Z,99.90
2018-07-25T18:25:36.871Z,99.90
2018-07-25T18:28:04.913Z,99.90
2018-07-25T18:33:00.770Z,99.90
2018-07-25T18:35:28.903Z,99.90
2018-07-25T18:37:56.885Z,99.90
2018-07-25T18:40:24.883Z,99.90
2018-07-25T18:42:53.145Z,99.90
2018-07-25T18:45:21.222Z,99.90
2018-07-25T18:47:49.307Z,99.90
2018-07-25T18:50:17.317Z,99.90
2018-07-25T18:52:45.321Z,99.90
2018-07-25T18:55:13.281Z,99.90
2018-07-25T18:57:41.272Z,99.90
2018-07-25T19:00:10.456Z,99.90
2018-07-25T19:02:38.497Z,99.90
2018-07-25T19:05:06.740Z,99.90
2018-07-25T19:10:02.589Z,99.90
2018-07-25T19:15:03.895Z,99.90
2018-07-25T19:17:31.849Z,99.90
2018-07-25T19:20:02.008Z,99.90
2018-07-25T19:22:31.307Z,99.90
2018-07-25T19:24:59.319Z,99.90
2018-07-25T19:30:05.838Z,99.90
2018-07-25T19:32:36.238Z,99.90
2018-07-25T19:37:36.762Z,99.90
2018-07-25T19:40:07.461Z,99.90
2018-07-25T19:42:37.366Z,99.90
2018-07-25T19:45:05.459Z,99.90
2018-07-25T19:47:33.484Z,99.90
2018-07-25T19:52:29.348Z,99.90
2018-07-25T19:54:57.321Z,99.90
2018-07-25T19:57:25.252Z,99.90
2018-07-25T19:59:53.276Z,99.90
2018-07-25T20:02:21.203Z,99.90
2018-07-25T20:07:16.949Z,99.90
2018-07-25T20:09:44.896Z,99.90
2018-07-25T20:12:12.829Z,99.90
2018-07-25T20:14:46.445Z,99.90
2018-07-25T20:17:15.087Z,99.90
2018-07-25T20:19:43.139Z,99.90
2018-07-25T20:22:11.151Z,99.90
2018-07-25T20:24:39.056Z,99.90
2018-07-25T20:27:07.052Z,99.90
2018-07-25T20:32:02.756Z,99.90
2018-07-25T20:34:30.654Z,99.90
2018-07-25T20:36:58.640Z,99.90
2018-07-25T20:41:54.375Z,99.90
2018-07-25T20:46:50.111Z,99.90
2018-07-25T20:51:45.825Z,99.90
2018-07-25T20:54:13.783Z,99.90
2018-07-25T20:56:41.793Z,99.90
2018-07-25T21:01:37.512Z,99.90
2018-07-25T21:04:05.488Z,99.90
2018-07-25T21:06:33.520Z,99.90
2018-07-25T21:09:01.441Z,99.90
2018-07-25T21:13:57.141Z,99.90
2018-07-25T21:16:25.065Z,99.90
2018-07-25T21:18:53.045Z,99.90
2018-07-25T21:21:21.040Z,99.90
2018-07-25T21:23:48.956Z,99.90
2018-07-25T21:28:44.741Z,99.90
2018-07-25T21:31:12.659Z,99.90
2018-07-25T21:36:08.359Z,99.90
2018-07-25T21:38:36.371Z,99.90
2018-07-25T21:43:32.101Z,99.90
2018-07-25T21:48:28.467Z,99.90
2018-07-25T21:50:56.453Z,99.90
2018-07-25T21:53:24.397Z,99.90
2018-07-25T21:55:52.326Z,99.90
2018-07-25T21:58:20.254Z,99.90
2018-07-25T22:00:57.942Z,99.90
2018-07-25T22:03:25.853Z,99.90
2018-07-25T22:05:53.848Z,99.90
2018-07-25T22:08:21.846Z,99.90
2018-07-25T22:10:49.808Z,99.90
2018-07-25T22:13:17.740Z,99.90
2018-07-25T22:15:45.675Z,99.90
2018-07-25T22:18:13.635Z,99.90
2018-07-25T22:23:09.375Z,99.90
2018-07-25T22:25:37.316Z,99.90
2018-07-25T22:28:05.379Z,99.90
2018-07-25T22:30:33.331Z,99.90
2018-07-25T22:33:01.359Z,99.90
2018-07-25T22:35:29.305Z,99.90
2018-07-25T22:37:57.218Z,99.90
2018-07-25T22:40:25.174Z,99.90
2018-07-25T22:42:53.137Z,99.90
2018-07-25T22:47:48.840Z,99.90
2018-07-25T22:50:16.832Z,99.90
2018-07-25T22:55:12.930Z,99.90
2018-07-25T22:57:41.003Z,99.90
2018-07-25T23:00:09.257Z,99.90
2018-07-25T23:02:37.378Z,99.90
2018-07-25T23:05:05.398Z,99.90
2018-07-25T23:07:33.344Z,99.90
2018-07-25T23:12:29.328Z,99.90
2018-07-25T23:14:57.298Z,99.90
2018-07-25T23:17:25.496Z,99.90
2018-07-25T23:19:53.502Z,99.90
2018-07-25T23:22:21.428Z,99.90
2018-07-25T23:24:49.428Z,99.90
2018-07-25T23:27:17.384Z,99.90
2018-07-25T23:29:45.309Z,99.90
2018-07-25T23:32:13.265Z,99.90
2018-07-25T23:39:36.784Z,99.90
2018-07-25T23:42:04.764Z,99.90
2018-07-25T23:44:32.684Z,99.90
2018-07-25T23:47:00.610Z,99.90
2018-07-25T23:49:28.570Z,99.90
2018-07-25T23:51:56.553Z,99.90
2018-07-25T23:54:24.463Z,99.90
2018-07-25T23:56:52.459Z,99.90
